createdAt,value
2023-11-15T00:01:31.249Z,98503.09
2023-11-15T00:03:58.219Z,98504.03
2023-11-15T00:06:25.435Z,98512.06
2023-11-15T00:08:53.575Z,98511.81
2023-11-15T00:11:20.545Z,98509.03
2023-11-15T00:13:51.857Z,98511.44
2023-11-15T00:16:19.257Z,98521.34
2023-11-15T00:18:46.292Z,98515.34
2023-11-15T00:21:14.602Z,98530.81
2023-11-15T00:23:41.556Z,98521.81
2023-11-15T00:26:08.463Z,98547.31
2023-11-15T00:28:35.659Z,98538.97
2023-11-15T00:31:03.599Z,98547.84
2023-11-15T00:33:30.600Z,98537.75
2023-11-15T00:35:57.621Z,98534.03
2023-11-15T00:38:24.731Z,98535.69
2023-11-15T00:40:53.608Z,98539.69
2023-11-15T00:43:21.058Z,98539.03
2023-11-15T00:45:47.982Z,98531.34
2023-11-15T00:48:17.390Z,98521.81
2023-11-15T00:50:45.289Z,98543.69
2023-11-15T00:53:12.212Z,98549.78
2023-11-15T00:55:39.082Z,98564.25
2023-11-15T00:58:10.528Z,98577.13
2023-11-15T01:00:46.195Z,98580.47
2023-11-15T01:03:17.474Z,98563.16
2023-11-15T01:05:44.466Z,98588.06
2023-11-15T01:08:11.390Z,98595.84
2023-11-15T01:10:39.126Z,98569.59
2023-11-15T01:13:06.390Z,98590.94
2023-11-15T01:15:33.538Z,98585.19
2023-11-15T01:18:04.532Z,98605.56
2023-11-15T01:20:31.679Z,98606.06
2023-11-15T01:22:59.332Z,98605.56
2023-11-15T01:25:31.728Z,98597.44
2023-11-15T01:28:00.320Z,98596.16
2023-11-15T01:30:27.646Z,98585.75
2023-11-15T01:32:59.110Z,98600.56
2023-11-15T01:35:26.099Z,98620.41
2023-11-15T01:37:53.500Z,98627.16
2023-11-15T01:40:24.209Z,98602.03
2023-11-15T01:42:52.387Z,98617.22
2023-11-15T01:45:19.912Z,98620.75
2023-11-15T01:47:46.905Z,98631.13
2023-11-15T01:50:14.832Z,98632.22
2023-11-15T01:52:47.671Z,98637.41
2023-11-15T01:55:20.122Z,98634.25
2023-11-15T01:57:47.918Z,98644.63
2023-11-15T02:00:16.538Z,98643.53
2023-11-15T02:02:44.960Z,98640.94
2023-11-15T02:05:12.149Z,98632.78
2023-11-15T02:07:44.147Z,98647.50
2023-11-15T02:10:17.199Z,98643.28
2023-11-15T02:12:45.243Z,98645.97
2023-11-15T02:15:12.201Z,98633.75
2023-11-15T02:17:40.165Z,98649.41
2023-11-15T02:20:09.591Z,98648.47
2023-11-15T02:22:51.333Z,98631.28
2023-11-15T02:25:20.531Z,98659.78
2023-11-15T02:27:47.749Z,98658.84
2023-11-15T02:30:16.509Z,98659.59
2023-11-15T02:32:44.872Z,98645.75
2023-11-15T02:35:11.959Z,98672.94
2023-11-15T02:37:38.826Z,98666.41
2023-11-15T02:40:10.597Z,98685.16
2023-11-15T02:42:39.632Z,98688.72
2023-11-15T02:45:08.649Z,98693.88
2023-11-15T02:47:35.665Z,98688.16
2023-11-15T02:50:04.619Z,98682.31
2023-11-15T02:52:31.569Z,98695.78
2023-11-15T02:54:59.601Z,98697.72
2023-11-15T02:57:26.544Z,98699.59
2023-11-15T02:59:53.550Z,98720.94
2023-11-15T03:02:21.832Z,98727.94
2023-11-15T03:04:49.517Z,98726.00
2023-11-15T03:07:16.513Z,98729.38
2023-11-15T03:09:43.561Z,98734.09
2023-11-15T03:12:11.153Z,98737.75
2023-11-15T03:14:38.664Z,98731.88
2023-11-15T03:17:16.202Z,98739.41
2023-11-15T03:19:43.168Z,98742.91
2023-11-15T03:22:10.063Z,98752.44
2023-11-15T03:24:39.411Z,98752.28
2023-11-15T03:27:07.834Z,98763.31
2023-11-15T03:29:34.833Z,98761.16
2023-11-15T03:32:02.029Z,98761.50
2023-11-15T03:34:30.155Z,98764.69
2023-11-15T03:36:57.342Z,98776.72
2023-11-15T03:39:24.270Z,98779.56
2023-11-15T03:41:51.680Z,98792.84
2023-11-15T03:44:18.565Z,98797.28
2023-11-15T03:46:45.539Z,98793.78
2023-11-15T03:49:12.484Z,98791.91
2023-11-15T03:51:39.371Z,98814.81
2023-11-15T03:54:06.553Z,98813.81
2023-11-15T03:56:33.418Z,98820.66
2023-11-15T03:59:00.915Z,98817.56
2023-11-15T04:01:28.134Z,98825.31
2023-11-15T04:03:55.236Z,98827.91
2023-11-15T04:06:22.374Z,98843.22
2023-11-15T04:08:49.353Z,98840.72
2023-11-15T04:11:18.142Z,98837.50
2023-11-15T04:13:45.145Z,98838.38
2023-11-15T04:16:14.960Z,98830.69
2023-11-15T04:18:42.891Z,98847.63
2023-11-15T04:21:10.275Z,98858.06
2023-11-15T04:23:38.179Z,98861.44
2023-11-15T04:26:05.304Z,98845.06
2023-11-15T04:28:34.131Z,98856.72
2023-11-15T04:31:01.590Z,98856.72
2023-11-15T04:33:28.501Z,98856.50
2023-11-15T04:35:55.500Z,98853.22
2023-11-15T04:38:22.432Z,98867.53
2023-11-15T04:40:49.292Z,98848.28
2023-11-15T04:43:16.172Z,98862.56
2023-11-15T04:45:43.117Z,98859.28
2023-11-15T04:48:11.015Z,98857.47
2023-11-15T04:50:39.093Z,98848.28
2023-11-15T04:53:08.327Z,98853.91
2023-11-15T04:55:36.373Z,98857.38
2023-11-15T04:58:03.237Z,98864.94
2023-11-15T05:00:30.460Z,98857.09
2023-11-15T05:02:57.743Z,98867.81
2023-11-15T05:05:25.045Z,98869.50
2023-11-15T05:07:52.036Z,98846.13
2023-11-15T05:10:20.898Z,98868.59
2023-11-15T05:12:51.495Z,98869.81
2023-11-15T05:15:18.818Z,98869.00
2023-11-15T05:17:45.801Z,98868.00
2023-11-15T05:20:12.996Z,98844.44
2023-11-15T05:22:39.904Z,98880.84
2023-11-15T05:25:07.217Z,98882.38
2023-11-15T05:27:34.570Z,98885.97
2023-11-15T05:30:02.441Z,98892.22
2023-11-15T05:32:29.458Z,98880.00
2023-11-15T05:34:56.357Z,98871.63
2023-11-15T05:37:24.074Z,98895.72
2023-11-15T05:39:51.584Z,98892.06
2023-11-15T05:42:18.851Z,98884.13
2023-11-15T05:44:45.762Z,98889.16
2023-11-15T05:47:14.237Z,98901.06
2023-11-15T05:49:41.081Z,98906.25
2023-11-15T05:52:09.856Z,98903.50
2023-11-15T05:54:37.300Z,98908.66
2023-11-15T05:57:05.457Z,98905.91
2023-11-15T05:59:32.722Z,98895.88
2023-11-15T06:01:59.974Z,98906.75
2023-11-15T06:04:26.928Z,98895.50
2023-11-15T06:06:55.188Z,98909.16
2023-11-15T06:09:22.502Z,98923.31
2023-11-15T06:11:49.358Z,98923.22
2023-11-15T06:14:21.389Z,98927.41
2023-11-15T06:16:48.616Z,98924.91
2023-11-15T06:19:15.600Z,98935.50
2023-11-15T06:21:45.682Z,98928.41
2023-11-15T06:24:16.049Z,98934.91
2023-11-15T06:26:45.078Z,98941.28
2023-11-15T06:29:14.192Z,98960.31
2023-11-15T06:31:41.027Z,98958.38
2023-11-15T06:34:10.563Z,98968.25
2023-11-15T06:36:38.314Z,98968.56
2023-11-15T06:39:09.703Z,98966.88
2023-11-15T06:41:39.669Z,98975.94
2023-11-15T06:44:10.693Z,98963.84
2023-11-15T06:46:39.422Z,98960.19
2023-11-15T06:49:11.985Z,98981.69
2023-11-15T06:51:40.406Z,98980.13
2023-11-15T06:54:08.178Z,98977.63
2023-11-15T06:56:35.773Z,98990.09
2023-11-15T06:59:03.511Z,99001.38
2023-11-15T07:01:31.382Z,98999.63
2023-11-15T07:03:59.574Z,99004.72
2023-11-15T07:06:28.435Z,99022.47
2023-11-15T07:08:56.858Z,99018.22
2023-11-15T07:11:30.076Z,99021.84
2023-11-15T07:13:56.997Z,99011.88
2023-11-15T07:16:24.013Z,99015.94
2023-11-15T07:18:52.096Z,99026.41
2023-11-15T07:21:20.262Z,99024.84
2023-11-15T07:23:49.528Z,99016.59
2023-11-15T07:26:16.702Z,99037.78
2023-11-15T07:28:45.055Z,99028.28
2023-11-15T07:31:14.907Z,99013.34
2023-11-15T07:33:42.256Z,99043.81
2023-11-15T07:36:10.314Z,99047.59
2023-11-15T07:38:37.341Z,99037.34
2023-11-15T07:41:04.871Z,99045.47
2023-11-15T07:43:31.843Z,99022.03
2023-11-15T07:46:00.277Z,99043.94
2023-11-15T07:48:27.622Z,99055.84
2023-11-15T07:50:55.621Z,99039.59
2023-11-15T07:53:23.092Z,99043.03
2023-11-15T07:55:49.980Z,99051.69
2023-11-15T07:58:20.045Z,99050.81
2023-11-15T08:00:47.459Z,99072.91
2023-11-15T08:03:14.814Z,99071.06
2023-11-15T08:05:41.809Z,99063.38
2023-11-15T08:08:11.760Z,99071.91
2023-11-15T08:10:43.510Z,99076.22
2023-11-15T08:13:10.344Z,99073.03
2023-11-15T08:15:38.519Z,99081.31
2023-11-15T08:18:05.664Z,99069.41
2023-11-15T08:20:33.062Z,99056.81
2023-11-15T08:23:02.595Z,99075.06
2023-11-15T08:25:32.598Z,99080.75
2023-11-15T08:28:02.892Z,99089.84
2023-11-15T08:30:30.347Z,99089.06
2023-11-15T08:32:57.825Z,99094.78
2023-11-15T08:35:27.532Z,99096.75
2023-11-15T08:37:54.899Z,99095.84
2023-11-15T08:40:28.970Z,99109.28
2023-11-15T08:42:58.646Z,99107.75
2023-11-15T08:45:26.647Z,99109.13
2023-11-15T08:47:58.160Z,99115.97
2023-11-15T08:50:28.378Z,99117.81
2023-11-15T08:52:55.713Z,99115.97
2023-11-15T08:55:22.576Z,99124.69
2023-11-15T08:57:49.434Z,99106.06
2023-11-15T09:00:17.458Z,99113.69
2023-11-15T09:02:48.182Z,99123.28
2023-11-15T09:05:16.457Z,99124.63
2023-11-15T09:07:46.058Z,99125.53
2023-11-15T09:10:15.146Z,99109.44
2023-11-15T09:12:43.639Z,99120.84
2023-11-15T09:15:14.457Z,99125.72
2023-11-15T09:17:47.939Z,99132.38
2023-11-15T09:20:20.361Z,99137.50
2023-11-15T09:22:51.801Z,99128.78
2023-11-15T09:25:25.442Z,99144.84
2023-11-15T09:27:55.748Z,99117.38
2023-11-15T09:30:26.203Z,99134.00
2023-11-15T09:32:54.388Z,99117.66
2023-11-15T09:35:24.478Z,99124.50
2023-11-15T09:37:51.822Z,99139.56
2023-11-15T09:40:20.510Z,99152.53
2023-11-15T09:42:53.361Z,99132.75
2023-11-15T09:45:24.539Z,99135.50
2023-11-15T09:47:54.310Z,99143.13
2023-11-15T09:50:27.981Z,99140.34
2023-11-15T09:53:00.137Z,99144.44
2023-11-15T09:55:27.800Z,99144.53
2023-11-15T09:57:55.278Z,99141.13
2023-11-15T10:00:24.833Z,99151.94
2023-11-15T10:02:54.296Z,99154.78
2023-11-15T10:05:30.467Z,99138.06
2023-11-15T10:08:16.813Z,99148.44
2023-11-15T10:10:47.434Z,99143.56
2023-11-15T10:13:22.259Z,99133.03
2023-11-15T10:15:49.513Z,99146.31
2023-11-15T10:18:30.348Z,99148.31
2023-11-15T10:21:12.874Z,99167.81
2023-11-15T10:23:41.629Z,99165.22
2023-11-15T10:26:10.560Z,99165.22
2023-11-15T10:28:40.758Z,99172.72
2023-11-15T10:31:16.879Z,99170.28
2023-11-15T10:33:50.873Z,99164.63
2023-11-15T10:36:20.185Z,99170.81
2023-11-15T10:38:56.611Z,99177.53
2023-11-15T10:41:26.217Z,99158.00
2023-11-15T10:43:56.116Z,99175.00
2023-11-15T10:46:32.807Z,99172.03
2023-11-15T10:49:02.895Z,99145.84
2023-11-15T10:51:43.865Z,99164.19
2023-11-15T10:54:18.275Z,99152.91
2023-11-15T10:56:50.603Z,99150.84
2023-11-15T10:59:20.330Z,99151.66
2023-11-15T11:01:51.375Z,99157.31
2023-11-15T11:04:20.258Z,99145.47
2023-11-15T11:06:59.340Z,99150.97
2023-11-15T11:09:47.330Z,99153.25
2023-11-15T11:12:18.713Z,99135.47
2023-11-15T11:14:47.366Z,99136.38
2023-11-15T11:17:39.140Z,99143.72
2023-11-15T11:20:26.251Z,99143.31
2023-11-15T11:23:23.953Z,99132.09
2023-11-15T11:25:54.033Z,99131.00
2023-11-15T11:28:22.693Z,99130.09
2023-11-15T11:31:27.061Z,99138.25
2023-11-15T11:34:20.008Z,99136.56
2023-11-15T11:36:54.475Z,99131.22
2023-11-15T11:39:25.266Z,99125.69
2023-11-15T11:41:52.486Z,99125.78
2023-11-15T11:44:19.609Z,99122.78
2023-11-15T11:47:05.128Z,99125.38
2023-11-15T11:49:53.458Z,99112.22
2023-11-15T11:52:20.691Z,99107.72
2023-11-15T11:54:53.811Z,99112.13
2023-11-15T11:57:25.603Z,99086.25
2023-11-15T12:00:18.100Z,99105.69
2023-11-15T12:02:50.612Z,99102.50
2023-11-15T12:05:23.175Z,99103.28
2023-11-15T12:07:52.184Z,99094.88
2023-11-15T12:10:20.419Z,99099.50
2023-11-15T12:13:07.447Z,99107.59
2023-11-15T12:15:38.689Z,99097.59
2023-11-15T12:18:07.534Z,99100.91
2023-11-15T12:20:42.376Z,99095.91
2023-11-15T12:23:13.820Z,99093.97
2023-11-15T12:25:54.266Z,99095.06
2023-11-15T12:28:27.212Z,99083.28
2023-11-15T12:30:58.190Z,99076.13
2023-11-15T12:33:26.978Z,99082.53
2023-11-15T12:35:54.885Z,99074.66
2023-11-15T12:38:24.564Z,99072.13
2023-11-15T12:41:06.204Z,99078.75
2023-11-15T12:43:34.525Z,99073.72
2023-11-15T12:46:17.317Z,99082.09
2023-11-15T12:48:49.922Z,99092.22
2023-11-15T12:51:19.573Z,99069.25
2023-11-15T12:53:47.109Z,99086.03
2023-11-15T12:56:19.873Z,99075.94
2023-11-15T12:58:48.442Z,99094.16
2023-11-15T13:01:20.373Z,99050.72
2023-11-15T13:03:55.786Z,99086.19
2023-11-15T13:06:25.038Z,99086.03
2023-11-15T13:08:54.670Z,99085.09
2023-11-15T13:11:25.890Z,99086.88
2023-11-15T13:13:54.004Z,99092.66
2023-11-15T13:16:23.498Z,99092.88
2023-11-15T13:18:51.381Z,99084.88
2023-11-15T13:21:25.762Z,99090.16
2023-11-15T13:23:53.923Z,99088.13
2023-11-15T13:26:22.335Z,99098.53
2023-11-15T13:28:50.418Z,99110.00
2023-11-15T13:31:24.943Z,99107.13
2023-11-15T13:33:53.699Z,99102.19
2023-11-15T13:36:21.809Z,99103.97
2023-11-15T13:38:50.237Z,99119.41
2023-11-15T13:41:23.866Z,99118.38
2023-11-15T13:43:53.799Z,99135.25
2023-11-15T13:46:24.310Z,99119.66
2023-11-15T13:48:54.190Z,99114.72
2023-11-15T13:51:23.844Z,99115.38
2023-11-15T13:53:51.146Z,99127.63
2023-11-15T13:56:18.405Z,99122.44
2023-11-15T13:58:45.894Z,99131.00
2023-11-15T14:01:13.049Z,99113.53
2023-11-15T14:03:40.193Z,99104.53
2023-11-15T14:06:08.369Z,99103.81
2023-11-15T14:08:50.945Z,99127.44
2023-11-15T14:11:24.676Z,99133.31
2023-11-15T14:13:52.065Z,99139.38
2023-11-15T14:16:23.883Z,99134.94
2023-11-15T14:18:52.090Z,99143.63
2023-11-15T14:21:21.678Z,99128.97
2023-11-15T14:23:48.693Z,99133.81
2023-11-15T14:26:15.912Z,99151.13
2023-11-15T14:28:46.323Z,99166.81
2023-11-15T14:31:14.213Z,99162.28
2023-11-15T14:33:41.193Z,99167.56
2023-11-15T14:36:10.833Z,99164.22
2023-11-15T14:38:38.317Z,99163.44
2023-11-15T14:41:06.133Z,99152.28
2023-11-15T14:43:34.647Z,99158.06
2023-11-15T14:46:02.442Z,99165.63
2023-11-15T14:48:29.668Z,99163.34
2023-11-15T14:50:58.524Z,99181.06
2023-11-15T14:53:25.669Z,99169.91
2023-11-15T14:55:52.975Z,99175.50
2023-11-15T14:58:20.162Z,99182.81
2023-11-15T15:00:48.375Z,99185.31
2023-11-15T15:03:18.319Z,99171.72
2023-11-15T15:05:49.080Z,99179.88
2023-11-15T15:08:18.511Z,99189.53
2023-11-15T15:10:45.612Z,99180.47
2023-11-15T15:13:13.679Z,99187.19
2023-11-15T15:15:41.143Z,99194.63
2023-11-15T15:18:13.934Z,99191.41
2023-11-15T15:20:46.568Z,99204.09
2023-11-15T15:23:14.321Z,99211.13
2023-11-15T15:25:45.385Z,99205.34
2023-11-15T15:28:12.373Z,99200.59
2023-11-15T15:30:40.275Z,99216.72
2023-11-15T15:33:08.488Z,99193.59
2023-11-15T15:35:38.522Z,99218.59
2023-11-15T15:38:05.364Z,99202.00
2023-11-15T15:40:36.161Z,99225.88
2023-11-15T15:43:03.421Z,99226.22
2023-11-15T15:45:30.993Z,99227.81
2023-11-15T15:48:01.202Z,99223.25
2023-11-15T15:50:29.498Z,99228.81
2023-11-15T15:52:56.598Z,99242.03
2023-11-15T15:55:23.984Z,99247.81
2023-11-15T15:57:51.699Z,99242.47
2023-11-15T16:00:19.294Z,99243.56
2023-11-15T16:02:47.803Z,99241.97
2023-11-15T16:05:17.590Z,99261.50
2023-11-15T16:07:45.562Z,99259.78
2023-11-15T16:10:13.761Z,99256.47
2023-11-15T16:12:40.641Z,99256.41
2023-11-15T16:15:14.350Z,99264.97
2023-11-15T16:17:41.427Z,99273.44
2023-11-15T16:20:09.490Z,99257.34
2023-11-15T16:22:37.092Z,99273.03
2023-11-15T16:25:05.841Z,99274.41
2023-11-15T16:27:37.153Z,99268.78
2023-11-15T16:30:15.357Z,99273.81
2023-11-15T16:32:43.507Z,99289.22
2023-11-15T16:35:10.701Z,99280.09
2023-11-15T16:37:43.442Z,99286.25
2023-11-15T16:40:11.610Z,99292.16
2023-11-15T16:42:40.052Z,99296.38
2023-11-15T16:45:09.508Z,99296.19
2023-11-15T16:47:37.493Z,99301.53
2023-11-15T16:50:05.727Z,99315.19
2023-11-15T16:52:35.511Z,99308.31
2023-11-15T16:55:05.684Z,99308.03
2023-11-15T16:57:32.553Z,99305.09
2023-11-15T17:00:01.431Z,99316.72
2023-11-15T17:02:29.033Z,99323.91
2023-11-15T17:04:56.412Z,99326.25
2023-11-15T17:07:24.335Z,99334.34
2023-11-15T17:09:52.423Z,99332.72
2023-11-15T17:12:19.866Z,99339.91
2023-11-15T17:14:47.108Z,99339.28
2023-11-15T17:17:16.312Z,99343.56
2023-11-15T17:19:43.937Z,99343.06
2023-11-15T17:22:13.845Z,99343.88
2023-11-15T17:24:40.796Z,99349.53
2023-11-15T17:27:08.589Z,99361.94
2023-11-15T17:29:35.826Z,99351.88
2023-11-15T17:32:03.523Z,99351.50
2023-11-15T17:34:30.972Z,99350.63
2023-11-15T17:36:59.231Z,99362.09
2023-11-15T17:39:26.577Z,99363.13
2023-11-15T17:41:56.319Z,99357.53
2023-11-15T17:44:24.544Z,99378.84
2023-11-15T17:46:51.510Z,99378.06
2023-11-15T17:49:18.446Z,99352.84
2023-11-15T17:51:45.966Z,99352.44
2023-11-15T17:54:15.943Z,99365.31
2023-11-15T17:56:44.237Z,99364.88
2023-11-15T17:59:11.088Z,99371.22
2023-11-15T18:01:39.889Z,99363.44
2023-11-15T18:04:15.769Z,99350.66
2023-11-15T18:06:43.260Z,99356.63
2023-11-15T18:09:11.473Z,99336.66
2023-11-15T18:11:38.778Z,99371.47
2023-11-15T18:14:06.952Z,99368.19
2023-11-15T18:16:33.939Z,99375.41
2023-11-15T18:19:08.538Z,99376.41
2023-11-15T18:21:35.852Z,99378.91
2023-11-15T18:24:02.884Z,99378.78
2023-11-15T18:26:31.235Z,99367.63
2023-11-15T18:28:58.818Z,99361.16
2023-11-15T18:31:27.325Z,99379.63
2023-11-15T18:33:58.127Z,99383.31
2023-11-15T18:36:25.583Z,99381.69
2023-11-15T18:38:52.901Z,99375.41
2023-11-15T18:41:19.943Z,99377.09
2023-11-15T18:43:46.861Z,99388.59
2023-11-15T18:46:13.761Z,99385.22
2023-11-15T18:48:45.461Z,99376.09
2023-11-15T18:51:13.123Z,99378.78
2023-11-15T18:53:40.587Z,99362.44
2023-11-15T18:56:08.197Z,99364.25
2023-11-15T18:58:36.853Z,99371.91
2023-11-15T19:01:04.748Z,99373.88
2023-11-15T19:03:31.800Z,99368.94
2023-11-15T19:05:59.375Z,99374.25
2023-11-15T19:08:26.267Z,99381.09
2023-11-15T19:10:55.153Z,99362.88
2023-11-15T19:13:25.045Z,99370.50
2023-11-15T19:15:52.151Z,99376.97
2023-11-15T19:18:21.638Z,99376.81
2023-11-15T19:20:49.610Z,99386.06
2023-11-15T19:23:17.614Z,99370.00
2023-11-15T19:25:46.599Z,99376.72
2023-11-15T19:28:17.448Z,99387.72
2023-11-15T19:30:50.315Z,99387.47
2023-11-15T19:33:19.200Z,99384.59
2023-11-15T19:35:46.805Z,99365.97
2023-11-15T19:38:13.984Z,99370.22
2023-11-15T19:40:41.006Z,99379.56
2023-11-15T19:43:10.194Z,99359.59
2023-11-15T19:45:37.235Z,99376.09
2023-11-15T19:48:04.441Z,99372.78
2023-11-15T19:50:32.189Z,99368.69
2023-11-15T19:53:00.084Z,99369.63
2023-11-15T19:55:29.658Z,99352.13
2023-11-15T19:57:58.901Z,99358.59
2023-11-15T20:00:26.178Z,99366.75
2023-11-15T20:02:55.187Z,99358.31
2023-11-15T20:05:22.895Z,99361.94
2023-11-15T20:07:50.450Z,99361.38
2023-11-15T20:10:19.144Z,99357.94
2023-11-15T20:12:46.934Z,99364.94
2023-11-15T20:15:15.989Z,99361.16
2023-11-15T20:17:46.620Z,99356.94
2023-11-15T20:20:16.589Z,99379.81
2023-11-15T20:22:51.760Z,99378.97
2023-11-15T20:25:20.873Z,99365.03
2023-11-15T20:27:49.298Z,99365.03
2023-11-15T20:30:16.524Z,99379.66
2023-11-15T20:32:43.823Z,99354.19
2023-11-15T20:35:12.630Z,99353.41
2023-11-15T20:37:39.869Z,99363.69
2023-11-15T20:40:15.373Z,99358.56
2023-11-15T20:42:47.043Z,99349.53
2023-11-15T20:45:14.398Z,99351.97
2023-11-15T20:47:44.426Z,99353.94
2023-11-15T20:50:12.859Z,99350.13
2023-11-15T20:52:40.638Z,99346.16
2023-11-15T20:55:09.563Z,99333.78
2023-11-15T20:57:37.751Z,99335.94
2023-11-15T21:00:14.845Z,99334.88
2023-11-15T21:02:41.954Z,99321.16
2023-11-15T21:05:09.660Z,99334.88
2023-11-15T21:07:38.565Z,99331.94
2023-11-15T21:10:08.603Z,99333.78
2023-11-15T21:12:36.690Z,99331.13
2023-11-15T21:15:06.745Z,99331.53
2023-11-15T21:17:34.099Z,99337.69
2023-11-15T21:20:01.388Z,99336.84
2023-11-15T21:22:29.323Z,99326.34
2023-11-15T21:24:56.980Z,99304.59
2023-11-15T21:27:25.898Z,99326.63
2023-11-15T21:29:54.542Z,99326.63
2023-11-15T21:32:23.229Z,99319.88
2023-11-15T21:34:50.424Z,99324.16
2023-11-15T21:37:19.027Z,99319.88
2023-11-15T21:39:46.581Z,99324.66
2023-11-15T21:42:16.462Z,99316.63
2023-11-15T21:44:44.741Z,99316.19
2023-11-15T21:47:11.775Z,99289.53
2023-11-15T21:49:38.815Z,99314.25
2023-11-15T21:52:07.661Z,99314.09
2023-11-15T21:54:37.444Z,99305.56
2023-11-15T21:57:05.506Z,99315.25
2023-11-15T21:59:32.590Z,99321.91
2023-11-15T22:01:59.489Z,99312.03
2023-11-15T22:04:27.338Z,99318.91
2023-11-15T22:06:59.522Z,99317.59
2023-11-15T22:09:32.400Z,99305.69
2023-11-15T22:12:00.360Z,99313.25
2023-11-15T22:14:30.187Z,99295.34
2023-11-15T22:17:01.576Z,99295.47
2023-11-15T22:19:30.301Z,99304.97
2023-11-15T22:21:57.551Z,99295.47
2023-11-15T22:24:24.486Z,99300.63
2023-11-15T22:26:51.499Z,99297.25
2023-11-15T22:29:18.718Z,99289.50
2023-11-15T22:31:51.269Z,99303.59
2023-11-15T22:34:19.916Z,99278.09
2023-11-15T22:36:47.874Z,99296.59
2023-11-15T22:39:15.969Z,99291.38
2023-11-15T22:41:42.981Z,99290.66
2023-11-15T22:44:10.622Z,99295.81
2023-11-15T22:46:37.835Z,99302.69
2023-11-15T22:49:06.056Z,99298.34
2023-11-15T22:51:36.233Z,99303.59
2023-11-15T22:54:03.157Z,99290.91
2023-11-15T22:56:30.022Z,99297.53
2023-11-15T22:58:56.884Z,99284.81
2023-11-15T23:01:23.846Z,99295.03
2023-11-15T23:03:53.153Z,99294.25
2023-11-15T23:06:20.802Z,99283.88
2023-11-15T23:08:49.335Z,99284.81
2023-11-15T23:11:16.559Z,99293.44
2023-11-15T23:13:46.698Z,99256.41
2023-11-15T23:16:14.455Z,99271.47
2023-11-15T23:18:41.484Z,99280.75
2023-11-15T23:21:11.342Z,99265.50
2023-11-15T23:23:38.220Z,99282.47
2023-11-15T23:26:07.399Z,99272.34
2023-11-15T23:28:34.419Z,99273.06
2023-11-15T23:31:01.975Z,99273.97
2023-11-15T23:33:28.943Z,99273.06
2023-11-15T23:35:57.176Z,99262.91
2023-11-15T23:38:24.096Z,99258.25
2023-11-15T23:40:54.906Z,99261.13
2023-11-15T23:43:22.193Z,99261.13
2023-11-15T23:45:51.330Z,99268.66
2023-11-15T23:48:18.581Z,99266.81
2023-11-15T23:50:45.714Z,99265.22
2023-11-15T23:53:12.647Z,99272.22
2023-11-15T23:55:39.940Z,99248.41
2023-11-15T23:58:10.732Z,99274.84
